This is the latest recevied weather packets stored in our database for station/object DB0MGN-WX. If no packets are shown the sender has not sent any weather packets the latest 1 day(s).
| Time | Temp. | Humidity | Pressure | Rain* | Wind** | Luminosity | Snow |
|---|---|---|---|---|---|---|---|
| 1778002442 | 13.89° C | 88% | 1006.1 hPa | - | - | - | - |
| 1778001661 | 15.56° C | 82% | 1005.9 hPa | - | - | - | - |
| 1778001601 | 16.11° C | 82% | 1005.9 hPa | - | - | - | - |
| 1778001541 | 16.11° C | 83% | 1005.8 hPa | - | - | - | - |
| 1778001481 | 16.11° C | 82% | 1005.8 hPa | - | - | - | - |
| 1778000820 | 16.67° C | 77% | 1005.6 hPa | - | - | - | - |
| 1778000760 | 17.22° C | 77% | 1005.6 hPa | - | - | - | - |
| 1778000700 | 17.22° C | 76% | 1005.4 hPa | - | - | - | - |
| 1778000640 | 17.22° C | 76% | 1005.5 hPa | - | - | - | - |
| 1778000580 | 17.22° C | 75% | 1005.4 hPa | - | - | - | - |
| 1778000520 | 17.22° C | 75% | 1005.4 hPa | - | - | - | - |
| 1777999739 | 17.78° C | 71% | 1005.2 hPa | - | - | - | - |
| 1777999679 | 17.78° C | 70% | 1005.2 hPa | - | - | - | - |
| 1777999619 | 17.78° C | 70% | 1005.1 hPa | - | - | - | - |
| 1777999559 | 17.78° C | 70% | 1005.1 hPa | - | - | - | - |
| 1777998898 | 17.78° C | 67% | 1005.2 hPa | - | - | - | - |
| 1777998658 | 17.78° C | 67% | 1005.3 hPa | - | - | - | - |
| 1777998598 | 17.78° C | 66% | 1005.3 hPa | - | - | - | - |
| 1777998538 | 17.78° C | 66% | 1005.4 hPa | - | - | - | - |
| 1777997757 | 18.33° C | 62% | 1005.5 hPa | - | - | - | - |
| 1777997697 | 18.33° C | 62% | 1005.5 hPa | - | - | - | - |
| 1777997637 | 18.89° C | 60% | 1005.5 hPa | - | - | - | - |
| 1777997577 | 18.33° C | 61% | 1005.5 hPa | - | - | - | - |
| 1777997517 | 18.33° C | 61% | 1005.5 hPa | - | - | - | - |
* Rain since midnight (hover to see other rain measurements)
** Current wind speed in m/s (hover to see current wind gust speed)